Terminal Aerodrome Forecast
Issued by NWS

Home | Current Version | Previous Version | Text Only | Print | Product List | Glossary On
Versions: 1 2 3 4 5 6 7 8 9 10 11 12 13 14 15 16 17 18
000
FTUS43 KGRB 200900 AAA
TAFRHI
TAF AMD
KRHI 200909Z 2009/2106 21005KT P6SM SCT035 OVC070
      TEMPO 2009/2013 4SM -SHRA BR BKN035
     FM201700 25005KT 6SM HZ SCT025 OVC050
     FM202100 04004KT 6SM HZ BKN025 OVC040=

USA.gov is the U.S. government's official web portal to all federal, state and local government web resources and services.